sensor_id;sensor_type;location;lat;lon;timestamp;P1;durP1;ratioP1;P2;durP2;ratioP2
28836;SDS011;50669;50.982;11.022;2023-08-30T00:01:22;2.00;;;1.70;;
28836;SDS011;50669;50.982;11.022;2023-08-30T00:03:53;3.70;;;1.98;;
28836;SDS011;50669;50.982;11.022;2023-08-30T00:06:19;2.67;;;1.83;;
28836;SDS011;50669;50.982;11.022;2023-08-30T00:08:45;2.17;;;1.58;;
28836;SDS011;50669;50.982;11.022;2023-08-30T00:11:11;2.85;;;1.75;;
28836;SDS011;50669;50.982;11.022;2023-08-30T00:13:36;2.92;;;2.15;;
28836;SDS011;50669;50.982;11.022;2023-08-30T00:16:02;2.67;;;2.00;;
28836;SDS011;50669;50.982;11.022;2023-08-30T00:18:28;4.10;;;1.90;;
28836;SDS011;50669;50.982;11.022;2023-08-30T00:20:54;2.28;;;1.75;;
28836;SDS011;50669;50.982;11.022;2023-08-30T00:23:20;4.35;;;1.70;;
28836;SDS011;50669;50.982;11.022;2023-08-30T00:25:46;1.65;;;1.50;;
28836;SDS011;50669;50.982;11.022;2023-08-30T00:28:14;4.50;;;1.92;;
28836;SDS011;50669;50.982;11.022;2023-08-30T00:30:39;3.78;;;1.70;;
28836;SDS011;50669;50.982;11.022;2023-08-30T00:33:05;3.30;;;1.80;;
28836;SDS011;50669;50.982;11.022;2023-08-30T00:35:31;2.65;;;1.70;;
28836;SDS011;50669;50.982;11.022;2023-08-30T00:37:56;2.17;;;1.55;;
28836;SDS011;50669;50.982;11.022;2023-08-30T00:40:23;2.58;;;1.70;;
28836;SDS011;50669;50.982;11.022;2023-08-30T00:42:49;2.00;;;1.42;;
28836;SDS011;50669;50.982;11.022;2023-08-30T00:45:15;1.77;;;1.67;;
28836;SDS011;50669;50.982;11.022;2023-08-30T00:47:40;2.80;;;1.77;;
28836;SDS011;50669;50.982;11.022;2023-08-30T00:50:07;3.15;;;1.63;;
28836;SDS011;50669;50.982;11.022;2023-08-30T00:52:34;1.60;;;1.38;;
28836;SDS011;50669;50.982;11.022;2023-08-30T00:55:00;3.47;;;1.70;;
28836;SDS011;50669;50.982;11.022;2023-08-30T00:57:26;2.17;;;1.73;;
28836;SDS011;50669;50.982;11.022;2023-08-30T00:59:54;2.13;;;1.70;;
28836;SDS011;50669;50.982;11.022;2023-08-30T01:02:20;3.25;;;1.80;;
28836;SDS011;50669;50.982;11.022;2023-08-30T01:04:50;2.28;;;1.52;;
28836;SDS011;50669;50.982;11.022;2023-08-30T01:07:16;2.97;;;1.77;;
28836;SDS011;50669;50.982;11.022;2023-08-30T01:09:41;1.80;;;1.40;;
28836;SDS011;50669;50.982;11.022;2023-08-30T01:12:09;1.42;;;1.30;;
28836;SDS011;50669;50.982;11.022;2023-08-30T01:14:40;2.72;;;1.75;;
28836;SDS011;50669;50.982;11.022;2023-08-30T01:17:30;3.05;;;1.70;;
28836;SDS011;50669;50.982;11.022;2023-08-30T01:20:00;1.73;;;1.55;;
28836;SDS011;50669;50.982;11.022;2023-08-30T01:28:07;2.55;;;1.70;;
28836;SDS011;50669;50.982;11.022;2023-08-30T01:30:34;2.75;;;1.60;;
28836;SDS011;50669;50.982;11.022;2023-08-30T01:33:07;1.50;;;1.35;;
28836;SDS011;50669;50.982;11.022;2023-08-30T01:35:36;1.73;;;1.35;;
28836;SDS011;50669;50.982;11.022;2023-08-30T01:38:03;2.42;;;1.75;;
28836;SDS011;50669;50.982;11.022;2023-08-30T01:40:33;1.77;;;1.50;;
28836;SDS011;50669;50.982;11.022;2023-08-30T01:43:01;3.05;;;1.70;;
28836;SDS011;50669;50.982;11.022;2023-08-30T01:45:30;1.75;;;1.65;;
28836;SDS011;50669;50.982;11.022;2023-08-30T01:47:59;1.98;;;1.60;;
28836;SDS011;50669;50.982;11.022;2023-08-30T01:50:25;2.75;;;1.67;;
28836;SDS011;50669;50.982;11.022;2023-08-30T01:52:51;2.15;;;1.80;;
28836;SDS011;50669;50.982;11.022;2023-08-30T01:55:18;1.67;;;1.58;;
28836;SDS011;50669;50.982;11.022;2023-08-30T01:57:46;2.42;;;1.70;;
28836;SDS011;50669;50.982;11.022;2023-08-30T02:00:14;2.15;;;1.70;;
28836;SDS011;50669;50.982;11.022;2023-08-30T02:02:43;2.45;;;1.88;;
28836;SDS011;50669;50.982;11.022;2023-08-30T02:05:08;1.67;;;1.48;;
28836;SDS011;50669;50.982;11.022;2023-08-30T02:07:51;2.20;;;1.77;;
28836;SDS011;50669;50.982;11.022;2023-08-30T02:10:28;2.63;;;1.73;;
28836;SDS011;50669;50.982;11.022;2023-08-30T02:12:59;2.42;;;2.22;;
28836;SDS011;50669;50.982;11.022;2023-08-30T02:15:28;1.85;;;1.70;;
28836;SDS011;50669;50.982;11.022;2023-08-30T02:17:57;2.92;;;1.83;;
28836;SDS011;50669;50.982;11.022;2023-08-30T02:20:25;4.10;;;2.08;;
28836;SDS011;50669;50.982;11.022;2023-08-30T02:22:51;2.55;;;2.05;;
28836;SDS011;50669;50.982;11.022;2023-08-30T02:25:17;2.45;;;1.75;;
28836;SDS011;50669;50.982;11.022;2023-08-30T02:27:42;3.47;;;1.90;;
28836;SDS011;50669;50.982;11.022;2023-08-30T02:30:08;2.92;;;1.75;;
28836;SDS011;50669;50.982;11.022;2023-08-30T02:32:39;3.08;;;1.98;;
28836;SDS011;50669;50.982;11.022;2023-08-30T02:35:07;2.10;;;1.90;;
28836;SDS011;50669;50.982;11.022;2023-08-30T02:37:33;2.28;;;1.77;;
28836;SDS011;50669;50.982;11.022;2023-08-30T02:39:58;4.70;;;1.90;;
28836;SDS011;50669;50.982;11.022;2023-08-30T02:42:24;2.53;;;2.00;;
28836;SDS011;50669;50.982;11.022;2023-08-30T02:44:51;2.85;;;1.95;;
28836;SDS011;50669;50.982;11.022;2023-08-30T02:47:19;3.03;;;2.13;;
28836;SDS011;50669;50.982;11.022;2023-08-30T02:49:44;2.50;;;1.88;;
28836;SDS011;50669;50.982;11.022;2023-08-30T02:52:12;2.20;;;2.00;;
28836;SDS011;50669;50.982;11.022;2023-08-30T02:54:38;3.47;;;2.13;;
28836;SDS011;50669;50.982;11.022;2023-08-30T02:57:04;3.22;;;2.10;;
28836;SDS011;50669;50.982;11.022;2023-08-30T02:59:29;2.08;;;1.88;;
28836;SDS011;50669;50.982;11.022;2023-08-30T03:01:55;3.35;;;1.92;;
28836;SDS011;50669;50.982;11.022;2023-08-30T03:04:21;2.85;;;2.35;;
28836;SDS011;50669;50.982;11.022;2023-08-30T03:06:49;2.80;;;2.08;;
28836;SDS011;50669;50.982;11.022;2023-08-30T03:09:15;3.58;;;1.90;;
28836;SDS011;50669;50.982;11.022;2023-08-30T03:11:43;2.83;;;2.20;;
28836;SDS011;50669;50.982;11.022;2023-08-30T03:14:08;2.47;;;1.80;;
28836;SDS011;50669;50.982;11.022;2023-08-30T03:16:34;2.45;;;2.25;;
28836;SDS011;50669;50.982;11.022;2023-08-30T03:19:00;3.17;;;2.00;;
28836;SDS011;50669;50.982;11.022;2023-08-30T03:21:28;2.47;;;2.28;;
28836;SDS011;50669;50.982;11.022;2023-08-30T03:23:54;2.53;;;1.80;;
28836;SDS011;50669;50.982;11.022;2023-08-30T03:26:19;2.28;;;2.05;;
28836;SDS011;50669;50.982;11.022;2023-08-30T03:28:47;2.75;;;2.20;;
28836;SDS011;50669;50.982;11.022;2023-08-30T03:31:20;2.85;;;2.22;;
28836;SDS011;50669;50.982;11.022;2023-08-30T03:33:47;3.65;;;2.30;;
28836;SDS011;50669;50.982;11.022;2023-08-30T03:36:16;3.33;;;2.45;;
28836;SDS011;50669;50.982;11.022;2023-08-30T03:38:44;2.28;;;2.00;;
28836;SDS011;50669;50.982;11.022;2023-08-30T03:41:13;4.35;;;2.40;;
28836;SDS011;50669;50.982;11.022;2023-08-30T03:43:39;2.88;;;2.20;;
28836;SDS011;50669;50.982;11.022;2023-08-30T03:46:05;2.80;;;1.90;;
28836;SDS011;50669;50.982;11.022;2023-08-30T03:48:34;3.95;;;2.47;;
28836;SDS011;50669;50.982;11.022;2023-08-30T03:51:04;3.65;;;2.20;;
28836;SDS011;50669;50.982;11.022;2023-08-30T03:53:30;2.90;;;2.40;;
28836;SDS011;50669;50.982;11.022;2023-08-30T03:55:56;2.92;;;2.10;;
28836;SDS011;50669;50.982;11.022;2023-08-30T03:58:21;2.58;;;2.25;;
28836;SDS011;50669;50.982;11.022;2023-08-30T04:00:49;4.00;;;2.38;;
28836;SDS011;50669;50.982;11.022;2023-08-30T04:03:15;3.58;;;2.30;;
28836;SDS011;50669;50.982;11.022;2023-08-30T04:05:41;4.40;;;2.20;;
28836;SDS011;50669;50.982;11.022;2023-08-30T04:08:07;2.33;;;1.90;;
28836;SDS011;50669;50.982;11.022;2023-08-30T04:10:40;2.63;;;2.38;;
28836;SDS011;50669;50.982;11.022;2023-08-30T04:13:07;3.45;;;2.03;;
28836;SDS011;50669;50.982;11.022;2023-08-30T04:15:36;3.47;;;2.33;;
28836;SDS011;50669;50.982;11.022;2023-08-30T04:18:03;5.15;;;2.20;;
28836;SDS011;50669;50.982;11.022;2023-08-30T04:20:32;3.47;;;2.10;;
28836;SDS011;50669;50.982;11.022;2023-08-30T04:22:58;2.75;;;2.30;;
28836;SDS011;50669;50.982;11.022;2023-08-30T04:25:27;2.72;;;2.50;;
28836;SDS011;50669;50.982;11.022;2023-08-30T04:27:53;3.42;;;2.08;;
28836;SDS011;50669;50.982;11.022;2023-08-30T04:30:19;5.55;;;2.13;;
28836;SDS011;50669;50.982;11.022;2023-08-30T04:32:47;14.30;;;10.98;;
28836;SDS011;50669;50.982;11.022;2023-08-30T04:35:15;9.65;;;7.22;;
28836;SDS011;50669;50.982;11.022;2023-08-30T04:37:40;3.00;;;2.60;;
28836;SDS011;50669;50.982;11.022;2023-08-30T04:40:07;2.60;;;1.90;;
28836;SDS011;50669;50.982;11.022;2023-08-30T04:42:36;4.90;;;2.30;;
28836;SDS011;50669;50.982;11.022;2023-08-30T04:45:05;3.63;;;2.40;;
28836;SDS011;50669;50.982;11.022;2023-08-30T04:47:31;2.90;;;2.40;;
28836;SDS011;50669;50.982;11.022;2023-08-30T04:49:57;6.32;;;2.60;;
28836;SDS011;50669;50.982;11.022;2023-08-30T04:52:23;3.55;;;2.42;;
28836;SDS011;50669;50.982;11.022;2023-08-30T04:54:52;2.20;;;2.00;;
28836;SDS011;50669;50.982;11.022;2023-08-30T04:57:17;3.53;;;2.25;;
28836;SDS011;50669;50.982;11.022;2023-08-30T04:59:44;4.47;;;2.55;;
28836;SDS011;50669;50.982;11.022;2023-08-30T05:02:10;4.57;;;2.47;;
28836;SDS011;50669;50.982;11.022;2023-08-30T05:04:39;4.45;;;2.35;;
28836;SDS011;50669;50.982;11.022;2023-08-30T05:07:07;4.07;;;2.33;;
28836;SDS011;50669;50.982;11.022;2023-08-30T05:09:32;4.53;;;2.90;;
28836;SDS011;50669;50.982;11.022;2023-08-30T05:12:00;3.42;;;2.75;;
28836;SDS011;50669;50.982;11.022;2023-08-30T05:14:28;4.68;;;2.90;;
28836;SDS011;50669;50.982;11.022;2023-08-30T05:16:54;7.43;;;2.97;;
28836;SDS011;50669;50.982;11.022;2023-08-30T05:19:22;6.88;;;2.85;;
28836;SDS011;50669;50.982;11.022;2023-08-30T05:21:48;3.70;;;2.13;;
28836;SDS011;50669;50.982;11.022;2023-08-30T05:24:19;10.45;;;2.92;;
28836;SDS011;50669;50.982;11.022;2023-08-30T05:26:48;5.30;;;2.50;;
28836;SDS011;50669;50.982;11.022;2023-08-30T05:29:14;5.57;;;2.47;;
28836;SDS011;50669;50.982;11.022;2023-08-30T05:31:40;10.05;;;2.55;;
28836;SDS011;50669;50.982;11.022;2023-08-30T05:34:11;6.63;;;2.60;;
28836;SDS011;50669;50.982;11.022;2023-08-30T05:36:41;7.10;;;2.60;;
28836;SDS011;50669;50.982;11.022;2023-08-30T05:39:07;7.30;;;2.80;;
28836;SDS011;50669;50.982;11.022;2023-08-30T05:41:32;6.00;;;2.35;;
28836;SDS011;50669;50.982;11.022;2023-08-30T05:44:01;5.68;;;2.00;;
28836;SDS011;50669;50.982;11.022;2023-08-30T05:46:27;5.40;;;2.10;;
28836;SDS011;50669;50.982;11.022;2023-08-30T05:48:55;6.55;;;2.60;;
28836;SDS011;50669;50.982;11.022;2023-08-30T05:51:25;5.10;;;2.20;;
28836;SDS011;50669;50.982;11.022;2023-08-30T05:53:51;3.00;;;1.95;;
28836;SDS011;50669;50.982;11.022;2023-08-30T05:56:17;3.88;;;1.80;;
28836;SDS011;50669;50.982;11.022;2023-08-30T05:58:44;3.70;;;1.60;;
28836;SDS011;50669;50.982;11.022;2023-08-30T06:01:17;5.60;;;1.85;;
28836;SDS011;50669;50.982;11.022;2023-08-30T06:03:44;4.97;;;2.20;;
28836;SDS011;50669;50.982;11.022;2023-08-30T06:06:12;4.50;;;2.13;;
28836;SDS011;50669;50.982;11.022;2023-08-30T06:08:38;5.88;;;1.83;;
28836;SDS011;50669;50.982;11.022;2023-08-30T06:11:04;2.85;;;1.90;;
28836;SDS011;50669;50.982;11.022;2023-08-30T06:13:31;3.78;;;2.10;;
28836;SDS011;50669;50.982;11.022;2023-08-30T06:15:59;3.45;;;2.22;;
28836;SDS011;50669;50.982;11.022;2023-08-30T06:18:26;3.70;;;1.58;;
28836;SDS011;50669;50.982;11.022;2023-08-30T06:20:59;4.25;;;1.85;;
28836;SDS011;50669;50.982;11.022;2023-08-30T06:23:24;3.63;;;1.73;;
28836;SDS011;50669;50.982;11.022;2023-08-30T06:25:54;3.28;;;1.88;;
28836;SDS011;50669;50.982;11.022;2023-08-30T06:28:23;4.22;;;1.60;;
28836;SDS011;50669;50.982;11.022;2023-08-30T06:30:49;5.40;;;1.83;;
28836;SDS011;50669;50.982;11.022;2023-08-30T06:33:15;3.30;;;1.70;;
28836;SDS011;50669;50.982;11.022;2023-08-30T06:35:43;4.45;;;1.63;;
28836;SDS011;50669;50.982;11.022;2023-08-30T06:38:11;3.63;;;1.70;;
28836;SDS011;50669;50.982;11.022;2023-08-30T06:40:43;5.40;;;1.65;;
28836;SDS011;50669;50.982;11.022;2023-08-30T06:43:10;3.50;;;1.70;;
28836;SDS011;50669;50.982;11.022;2023-08-30T06:45:38;2.80;;;1.50;;
28836;SDS011;50669;50.982;11.022;2023-08-30T06:48:05;4.35;;;1.70;;
28836;SDS011;50669;50.982;11.022;2023-08-30T06:50:34;4.47;;;1.80;;
28836;SDS011;50669;50.982;11.022;2023-08-30T06:53:00;3.70;;;1.90;;
28836;SDS011;50669;50.982;11.022;2023-08-30T06:55:26;2.53;;;1.55;;
28836;SDS011;50669;50.982;11.022;2023-08-30T06:57:54;4.53;;;1.77;;
28836;SDS011;50669;50.982;11.022;2023-08-30T07:00:22;2.83;;;1.42;;
28836;SDS011;50669;50.982;11.022;2023-08-30T07:02:50;3.20;;;1.48;;
28836;SDS011;50669;50.982;11.022;2023-08-30T07:05:18;6.53;;;2.00;;
28836;SDS011;50669;50.982;11.022;2023-08-30T07:07:48;2.25;;;1.55;;
28836;SDS011;50669;50.982;11.022;2023-08-30T07:10:16;3.40;;;1.40;;
28836;SDS011;50669;50.982;11.022;2023-08-30T07:12:42;3.58;;;1.58;;
28836;SDS011;50669;50.982;11.022;2023-08-30T07:15:13;4.45;;;1.75;;
28836;SDS011;50669;50.982;11.022;2023-08-30T07:17:39;2.65;;;1.45;;
28836;SDS011;50669;50.982;11.022;2023-08-30T07:20:07;1.85;;;1.20;;
28836;SDS011;50669;50.982;11.022;2023-08-30T07:22:35;1.80;;;1.25;;
28836;SDS011;50669;50.982;11.022;2023-08-30T07:25:04;3.13;;;1.52;;
28836;SDS011;50669;50.982;11.022;2023-08-30T07:27:30;3.42;;;1.70;;
28836;SDS011;50669;50.982;11.022;2023-08-30T07:29:59;2.65;;;1.40;;
28836;SDS011;50669;50.982;11.022;2023-08-30T07:32:27;2.47;;;1.42;;
28836;SDS011;50669;50.982;11.022;2023-08-30T07:34:54;1.98;;;1.48;;
28836;SDS011;50669;50.982;11.022;2023-08-30T07:37:20;3.55;;;1.45;;
28836;SDS011;50669;50.982;11.022;2023-08-30T07:39:48;2.35;;;1.45;;
28836;SDS011;50669;50.982;11.022;2023-08-30T07:42:15;2.90;;;1.40;;
28836;SDS011;50669;50.982;11.022;2023-08-30T07:44:41;2.92;;;1.52;;
28836;SDS011;50669;50.982;11.022;2023-08-30T07:47:07;3.25;;;1.52;;
28836;SDS011;50669;50.982;11.022;2023-08-30T07:49:32;1.75;;;1.27;;
28836;SDS011;50669;50.982;11.022;2023-08-30T07:52:00;2.08;;;1.17;;
28836;SDS011;50669;50.982;11.022;2023-08-30T07:54:33;2.38;;;1.40;;
28836;SDS011;50669;50.982;11.022;2023-08-30T07:57:01;1.85;;;1.30;;
28836;SDS011;50669;50.982;11.022;2023-08-30T07:59:27;2.70;;;1.33;;
28836;SDS011;50669;50.982;11.022;2023-08-30T08:01:53;2.53;;;1.30;;
28836;SDS011;50669;50.982;11.022;2023-08-30T08:04:19;3.00;;;1.48;;
28836;SDS011;50669;50.982;11.022;2023-08-30T08:06:47;1.90;;;1.15;;
28836;SDS011;50669;50.982;11.022;2023-08-30T08:09:12;2.85;;;1.48;;
28836;SDS011;50669;50.982;11.022;2023-08-30T08:11:41;1.88;;;1.20;;
28836;SDS011;50669;50.982;11.022;2023-08-30T08:14:08;2.45;;;1.10;;
28836;SDS011;50669;50.982;11.022;2023-08-30T08:16:38;2.08;;;1.20;;
28836;SDS011;50669;50.982;11.022;2023-08-30T08:19:04;1.80;;;1.17;;
28836;SDS011;50669;50.982;11.022;2023-08-30T08:21:31;2.20;;;1.20;;
28836;SDS011;50669;50.982;11.022;2023-08-30T08:23:56;4.60;;;1.30;;
28836;SDS011;50669;50.982;11.022;2023-08-30T08:26:22;2.22;;;1.27;;
28836;SDS011;50669;50.982;11.022;2023-08-30T08:28:48;2.67;;;1.27;;
28836;SDS011;50669;50.982;11.022;2023-08-30T08:31:13;3.13;;;1.30;;
28836;SDS011;50669;50.982;11.022;2023-08-30T08:33:42;3.00;;;0.90;;
28836;SDS011;50669;50.982;11.022;2023-08-30T08:36:08;3.33;;;1.50;;
28836;SDS011;50669;50.982;11.022;2023-08-30T08:38:34;2.85;;;1.40;;
28836;SDS011;50669;50.982;11.022;2023-08-30T08:41:04;1.85;;;1.10;;
28836;SDS011;50669;50.982;11.022;2023-08-30T08:43:32;1.98;;;1.17;;
28836;SDS011;50669;50.982;11.022;2023-08-30T08:46:02;2.50;;;1.38;;
28836;SDS011;50669;50.982;11.022;2023-08-30T08:48:28;3.28;;;1.20;;
28836;SDS011;50669;50.982;11.022;2023-08-30T08:50:58;3.00;;;1.33;;
28836;SDS011;50669;50.982;11.022;2023-08-30T08:53:30;2.92;;;1.30;;
28836;SDS011;50669;50.982;11.022;2023-08-30T08:55:58;2.35;;;1.30;;
28836;SDS011;50669;50.982;11.022;2023-08-30T08:58:25;2.83;;;1.27;;
28836;SDS011;50669;50.982;11.022;2023-08-30T09:00:52;1.92;;;1.30;;
28836;SDS011;50669;50.982;11.022;2023-08-30T09:03:18;2.42;;;1.20;;
28836;SDS011;50669;50.982;11.022;2023-08-30T09:05:45;1.30;;;0.93;;
28836;SDS011;50669;50.982;11.022;2023-08-30T09:08:11;1.88;;;1.30;;
28836;SDS011;50669;50.982;11.022;2023-08-30T09:10:38;2.08;;;1.10;;
28836;SDS011;50669;50.982;11.022;2023-08-30T09:13:04;1.38;;;1.10;;
28836;SDS011;50669;50.982;11.022;2023-08-30T09:15:31;2.22;;;1.17;;
28836;SDS011;50669;50.982;11.022;2023-08-30T09:17:57;2.15;;;1.17;;
28836;SDS011;50669;50.982;11.022;2023-08-30T09:20:24;1.34;;;1.00;;
28836;SDS011;50669;50.982;11.022;2023-08-30T09:22:49;2.20;;;1.10;;
28836;SDS011;50669;50.982;11.022;2023-08-30T09:25:25;1.88;;;1.10;;
28836;SDS011;50669;50.982;11.022;2023-08-30T09:27:58;1.92;;;1.10;;
28836;SDS011;50669;50.982;11.022;2023-08-30T09:32:53;1.90;;;1.13;;
28836;SDS011;50669;50.982;11.022;2023-08-30T09:35:19;1.48;;;1.00;;
28836;SDS011;50669;50.982;11.022;2023-08-30T09:37:45;2.17;;;1.15;;
28836;SDS011;50669;50.982;11.022;2023-08-30T09:40:18;1.90;;;1.30;;
28836;SDS011;50669;50.982;11.022;2023-08-30T09:42:48;2.28;;;1.10;;
28836;SDS011;50669;50.982;11.022;2023-08-30T09:45:21;3.45;;;1.48;;
28836;SDS011;50669;50.982;11.022;2023-08-30T09:47:50;1.42;;;1.00;;
28836;SDS011;50669;50.982;11.022;2023-08-30T09:50:17;1.77;;;1.15;;
28836;SDS011;50669;50.982;11.022;2023-08-30T09:52:46;1.80;;;1.08;;
28836;SDS011;50669;50.982;11.022;2023-08-30T09:55:14;1.90;;;1.05;;
28836;SDS011;50669;50.982;11.022;2023-08-30T09:57:43;2.55;;;1.40;;
28836;SDS011;50669;50.982;11.022;2023-08-30T10:00:09;3.63;;;1.70;;
28836;SDS011;50669;50.982;11.022;2023-08-30T10:02:42;1.55;;;0.88;;
28836;SDS011;50669;50.982;11.022;2023-08-30T10:05:11;2.63;;;1.55;;
28836;SDS011;50669;50.982;11.022;2023-08-30T10:07:38;1.80;;;1.30;;
28836;SDS011;50669;50.982;11.022;2023-08-30T10:10:06;1.77;;;1.00;;
28836;SDS011;50669;50.982;11.022;2023-08-30T10:12:38;2.33;;;1.10;;
28836;SDS011;50669;50.982;11.022;2023-08-30T10:15:06;1.98;;;0.90;;
28836;SDS011;50669;50.982;11.022;2023-08-30T10:17:32;2.22;;;1.20;;
28836;SDS011;50669;50.982;11.022;2023-08-30T10:20:03;1.90;;;1.27;;
28836;SDS011;50669;50.982;11.022;2023-08-30T10:22:31;2.55;;;1.38;;
28836;SDS011;50669;50.982;11.022;2023-08-30T10:25:03;1.33;;;1.10;;
28836;SDS011;50669;50.982;11.022;2023-08-30T10:27:33;2.20;;;1.10;;
28836;SDS011;50669;50.982;11.022;2023-08-30T10:30:02;1.77;;;1.15;;
28836;SDS011;50669;50.982;11.022;2023-08-30T10:32:32;2.90;;;1.27;;
28836;SDS011;50669;50.982;11.022;2023-08-30T10:35:04;2.00;;;0.98;;
28836;SDS011;50669;50.982;11.022;2023-08-30T10:37:30;2.67;;;1.20;;
28836;SDS011;50669;50.982;11.022;2023-08-30T10:40:00;2.03;;;1.15;;
28836;SDS011;50669;50.982;11.022;2023-08-30T10:42:29;2.00;;;1.15;;
28836;SDS011;50669;50.982;11.022;2023-08-30T10:49:57;2.17;;;1.05;;
28836;SDS011;50669;50.982;11.022;2023-08-30T10:52:29;2.33;;;1.15;;
28836;SDS011;50669;50.982;11.022;2023-08-30T10:55:05;2.47;;;1.00;;
28836;SDS011;50669;50.982;11.022;2023-08-30T10:57:35;1.83;;;1.10;;
28836;SDS011;50669;50.982;11.022;2023-08-30T11:02:35;4.85;;;1.65;;
28836;SDS011;50669;50.982;11.022;2023-08-30T11:05:02;1.42;;;1.00;;
28836;SDS011;50669;50.982;11.022;2023-08-30T11:07:31;1.75;;;1.10;;
28836;SDS011;50669;50.982;11.022;2023-08-30T11:09:57;1.27;;;1.05;;
28836;SDS011;50669;50.982;11.022;2023-08-30T11:12:25;1.60;;;0.93;;
28836;SDS011;50669;50.982;11.022;2023-08-30T11:14:54;1.15;;;0.85;;
28836;SDS011;50669;50.982;11.022;2023-08-30T11:17:20;0.98;;;0.85;;
28836;SDS011;50669;50.982;11.022;2023-08-30T11:19:49;1.58;;;1.00;;
28836;SDS011;50669;50.982;11.022;2023-08-30T11:22:18;4.20;;;1.00;;
28836;SDS011;50669;50.982;11.022;2023-08-30T11:24:46;1.85;;;1.00;;
28836;SDS011;50669;50.982;11.022;2023-08-30T11:27:13;2.05;;;0.90;;
28836;SDS011;50669;50.982;11.022;2023-08-30T11:29:40;1.00;;;0.88;;
28836;SDS011;50669;50.982;11.022;2023-08-30T11:32:07;2.38;;;1.10;;
28836;SDS011;50669;50.982;11.022;2023-08-30T11:34:33;1.33;;;0.95;;
28836;SDS011;50669;50.982;11.022;2023-08-30T11:36:58;2.05;;;0.93;;
28836;SDS011;50669;50.982;11.022;2023-08-30T11:39:30;1.92;;;1.05;;
28836;SDS011;50669;50.982;11.022;2023-08-30T11:41:56;1.10;;;0.90;;
28836;SDS011;50669;50.982;11.022;2023-08-30T11:44:24;1.50;;;1.10;;
28836;SDS011;50669;50.982;11.022;2023-08-30T11:46:58;1.40;;;0.80;;
28836;SDS011;50669;50.982;11.022;2023-08-30T11:49:25;1.33;;;1.00;;
28836;SDS011;50669;50.982;11.022;2023-08-30T11:51:55;1.88;;;1.02;;
28836;SDS011;50669;50.982;11.022;2023-08-30T11:54:23;1.85;;;1.00;;
28836;SDS011;50669;50.982;11.022;2023-08-30T11:56:51;2.22;;;1.05;;
28836;SDS011;50669;50.982;11.022;2023-08-30T11:59:20;1.73;;;0.90;;
28836;SDS011;50669;50.982;11.022;2023-08-30T12:01:48;1.58;;;0.93;;
28836;SDS011;50669;50.982;11.022;2023-08-30T12:04:17;1.60;;;0.77;;
28836;SDS011;50669;50.982;11.022;2023-08-30T12:06:44;1.77;;;1.08;;
28836;SDS011;50669;50.982;11.022;2023-08-30T12:09:18;1.30;;;0.90;;
28836;SDS011;50669;50.982;11.022;2023-08-30T12:11:47;1.20;;;0.85;;
28836;SDS011;50669;50.982;11.022;2023-08-30T12:14:15;1.67;;;1.08;;
28836;SDS011;50669;50.982;11.022;2023-08-30T12:16:41;1.92;;;0.98;;
28836;SDS011;50669;50.982;11.022;2023-08-30T12:19:11;2.50;;;0.80;;
28836;SDS011;50669;50.982;11.022;2023-08-30T12:21:40;1.03;;;0.90;;
28836;SDS011;50669;50.982;11.022;2023-08-30T12:24:07;2.53;;;1.00;;
28836;SDS011;50669;50.982;11.022;2023-08-30T12:26:33;1.00;;;0.90;;
28836;SDS011;50669;50.982;11.022;2023-08-30T12:29:03;1.35;;;1.00;;
28836;SDS011;50669;50.982;11.022;2023-08-30T12:31:32;1.20;;;0.80;;
28836;SDS011;50669;50.982;11.022;2023-08-30T12:33:58;1.88;;;1.10;;
28836;SDS011;50669;50.982;11.022;2023-08-30T12:36:26;1.17;;;0.88;;
28836;SDS011;50669;50.982;11.022;2023-08-30T12:38:52;1.65;;;0.95;;
28836;SDS011;50669;50.982;11.022;2023-08-30T12:41:19;1.10;;;0.77;;
28836;SDS011;50669;50.982;11.022;2023-08-30T12:43:48;1.67;;;1.10;;
28836;SDS011;50669;50.982;11.022;2023-08-30T12:46:19;1.35;;;0.80;;
28836;SDS011;50669;50.982;11.022;2023-08-30T12:48:45;1.30;;;0.93;;
28836;SDS011;50669;50.982;11.022;2023-08-30T12:51:10;1.38;;;0.93;;
28836;SDS011;50669;50.982;11.022;2023-08-30T12:53:36;1.35;;;0.80;;
28836;SDS011;50669;50.982;11.022;2023-08-30T12:56:07;1.45;;;0.90;;
28836;SDS011;50669;50.982;11.022;2023-08-30T12:58:33;1.75;;;0.88;;
28836;SDS011;50669;50.982;11.022;2023-08-30T13:01:01;1.98;;;1.10;;
28836;SDS011;50669;50.982;11.022;2023-08-30T13:03:29;1.58;;;0.90;;
28836;SDS011;50669;50.982;11.022;2023-08-30T13:05:57;1.35;;;0.95;;
28836;SDS011;50669;50.982;11.022;2023-08-30T13:08:23;1.88;;;0.90;;
28836;SDS011;50669;50.982;11.022;2023-08-30T13:10:49;1.17;;;0.90;;
28836;SDS011;50669;50.982;11.022;2023-08-30T13:13:17;0.75;;;0.70;;
28836;SDS011;50669;50.982;11.022;2023-08-30T13:15:43;0.90;;;0.80;;
28836;SDS011;50669;50.982;11.022;2023-08-30T13:18:11;1.08;;;0.70;;
28836;SDS011;50669;50.982;11.022;2023-08-30T13:20:39;1.20;;;0.90;;
28836;SDS011;50669;50.982;11.022;2023-08-30T13:23:07;2.45;;;0.98;;
28836;SDS011;50669;50.982;11.022;2023-08-30T13:25:33;1.58;;;0.95;;
28836;SDS011;50669;50.982;11.022;2023-08-30T13:27:59;1.88;;;0.90;;
28836;SDS011;50669;50.982;11.022;2023-08-30T13:30:24;1.65;;;0.98;;
28836;SDS011;50669;50.982;11.022;2023-08-30T13:32:50;1.73;;;1.13;;
28836;SDS011;50669;50.982;11.022;2023-08-30T13:35:15;1.90;;;1.27;;
28836;SDS011;50669;50.982;11.022;2023-08-30T13:37:43;1.77;;;0.90;;
28836;SDS011;50669;50.982;11.022;2023-08-30T13:40:17;1.48;;;0.90;;
28836;SDS011;50669;50.982;11.022;2023-08-30T13:42:45;1.30;;;0.80;;
28836;SDS011;50669;50.982;11.022;2023-08-30T13:45:11;1.63;;;1.00;;
28836;SDS011;50669;50.982;11.022;2023-08-30T13:47:38;1.15;;;0.80;;
28836;SDS011;50669;50.982;11.022;2023-08-30T13:50:04;0.80;;;0.60;;
28836;SDS011;50669;50.982;11.022;2023-08-30T13:52:30;0.70;;;0.70;;
28836;SDS011;50669;50.982;11.022;2023-08-30T13:54:58;1.23;;;0.93;;
28836;SDS011;50669;50.982;11.022;2023-08-30T13:57:26;2.25;;;0.90;;
28836;SDS011;50669;50.982;11.022;2023-08-30T13:59:52;1.17;;;0.80;;
28836;SDS011;50669;50.982;11.022;2023-08-30T14:02:18;1.50;;;0.85;;
28836;SDS011;50669;50.982;11.022;2023-08-30T14:04:44;1.15;;;0.80;;
28836;SDS011;50669;50.982;11.022;2023-08-30T14:07:09;1.20;;;0.60;;
28836;SDS011;50669;50.982;11.022;2023-08-30T14:09:36;1.77;;;0.70;;
28836;SDS011;50669;50.982;11.022;2023-08-30T14:12:02;1.20;;;0.60;;
28836;SDS011;50669;50.982;11.022;2023-08-30T14:14:31;0.90;;;0.80;;
28836;SDS011;50669;50.982;11.022;2023-08-30T14:16:57;1.27;;;0.80;;
28836;SDS011;50669;50.982;11.022;2023-08-30T14:19:22;1.55;;;1.02;;
28836;SDS011;50669;50.982;11.022;2023-08-30T14:21:48;1.00;;;0.75;;
28836;SDS011;50669;50.982;11.022;2023-08-30T14:24:19;1.38;;;0.80;;
28836;SDS011;50669;50.982;11.022;2023-08-30T14:26:49;1.27;;;0.63;;
28836;SDS011;50669;50.982;11.022;2023-08-30T14:29:15;0.93;;;0.80;;
28836;SDS011;50669;50.982;11.022;2023-08-30T14:31:45;1.45;;;0.95;;
28836;SDS011;50669;50.982;11.022;2023-08-30T14:34:10;1.58;;;0.82;;
28836;SDS011;50669;50.982;11.022;2023-08-30T14:36:41;1.13;;;0.70;;
28836;SDS011;50669;50.982;11.022;2023-08-30T14:39:08;0.95;;;0.50;;
28836;SDS011;50669;50.982;11.022;2023-08-30T14:41:34;1.77;;;0.77;;
28836;SDS011;50669;50.982;11.022;2023-08-30T14:44:02;1.08;;;0.70;;
28836;SDS011;50669;50.982;11.022;2023-08-30T14:46:28;1.67;;;1.00;;
28836;SDS011;50669;50.982;11.022;2023-08-30T14:48:56;0.80;;;0.52;;
28836;SDS011;50669;50.982;11.022;2023-08-30T14:51:25;1.15;;;0.70;;